sensor_id;sensor_type;location;lat;lon;timestamp;temperature;humidity
27781;DHT22;15167;1.318;103.762;2023-07-24T00:00:00;27.60;99.90
27781;DHT22;15167;1.318;103.762;2023-07-24T00:02:27;27.70;4.10
27781;DHT22;15167;1.318;103.762;2023-07-24T00:04:54;27.80;99.90
27781;DHT22;15167;1.318;103.762;2023-07-24T00:07:20;27.80;99.90
27781;DHT22;15167;1.318;103.762;2023-07-24T00:09:48;27.90;99.90
27781;DHT22;15167;1.318;103.762;2023-07-24T00:12:14;27.90;99.90
27781;DHT22;15167;1.318;103.762;2023-07-24T00:14:41;28.00;99.90
27781;DHT22;15167;1.318;103.762;2023-07-24T00:17:07;28.00;99.10
27781;DHT22;15167;1.318;103.762;2023-07-24T00:19:34;28.10;2.10
27781;DHT22;15167;1.318;103.762;2023-07-24T00:22:00;28.00;1.00
27781;DHT22;15167;1.318;103.762;2023-07-24T00:24:27;28.00;1.00
27781;DHT22;15167;1.318;103.762;2023-07-24T00:26:53;28.00;1.00
27781;DHT22;15167;1.318;103.762;2023-07-24T00:29:20;28.10;99.90
27781;DHT22;15167;1.318;103.762;2023-07-24T00:31:47;28.10;99.90
27781;DHT22;15167;1.318;103.762;2023-07-24T00:34:13;28.10;99.90
27781;DHT22;15167;1.318;103.762;2023-07-24T00:36:40;28.20;99.90
27781;DHT22;15167;1.318;103.762;2023-07-24T00:39:07;28.30;99.90
27781;DHT22;15167;1.318;103.762;2023-07-24T00:41:33;28.40;96.90
27781;DHT22;15167;1.318;103.762;2023-07-24T00:44:00;28.50;1.00
27781;DHT22;15167;1.318;103.762;2023-07-24T00:46:27;28.60;1.00
27781;DHT22;15167;1.318;103.762;2023-07-24T00:48:58;28.70;99.90
27781;DHT22;15167;1.318;103.762;2023-07-24T00:51:27;28.70;99.90
27781;DHT22;15167;1.318;103.762;2023-07-24T00:53:57;28.90;99.90
27781;DHT22;15167;1.318;103.762;2023-07-24T00:56:24;29.00;1.00
27781;DHT22;15167;1.318;103.762;2023-07-24T00:58:51;29.00;1.00
27781;DHT22;15167;1.318;103.762;2023-07-24T01:01:18;29.10;1.00
27781;DHT22;15167;1.318;103.762;2023-07-24T01:03:44;29.30;1.00
27781;DHT22;15167;1.318;103.762;2023-07-24T01:06:11;29.30;99.90
27781;DHT22;15167;1.318;103.762;2023-07-24T01:08:37;29.40;99.90
27781;DHT22;15167;1.318;103.762;2023-07-24T01:13:40;29.50;99.90
27781;DHT22;15167;1.318;103.762;2023-07-24T01:16:14;29.50;99.90
27781;DHT22;15167;1.318;103.762;2023-07-24T01:18:45;29.60;99.90
27781;DHT22;15167;1.318;103.762;2023-07-24T01:21:12;29.60;99.90
27781;DHT22;15167;1.318;103.762;2023-07-24T01:24:18;29.60;99.90
27781;DHT22;15167;1.318;103.762;2023-07-24T01:26:50;29.60;99.90
27781;DHT22;15167;1.318;103.762;2023-07-24T01:29:17;29.60;99.90
27781;DHT22;15167;1.318;103.762;2023-07-24T01:31:43;29.70;99.90
27781;DHT22;15167;1.318;103.762;2023-07-24T01:34:10;29.60;99.90
27781;DHT22;15167;1.318;103.762;2023-07-24T01:36:36;29.70;99.90
27781;DHT22;15167;1.318;103.762;2023-07-24T01:39:03;29.80;99.90
27781;DHT22;15167;1.318;103.762;2023-07-24T01:41:31;29.80;99.90
27781;DHT22;15167;1.318;103.762;2023-07-24T01:43:59;29.80;99.90
27781;DHT22;15167;1.318;103.762;2023-07-24T01:46:26;29.90;99.90
27781;DHT22;15167;1.318;103.762;2023-07-24T01:48:52;29.90;99.90
27781;DHT22;15167;1.318;103.762;2023-07-24T01:51:19;29.90;99.90
27781;DHT22;15167;1.318;103.762;2023-07-24T01:53:45;29.90;99.90
27781;DHT22;15167;1.318;103.762;2023-07-24T01:56:11;29.90;99.90
27781;DHT22;15167;1.318;103.762;2023-07-24T01:58:38;29.90;99.90
27781;DHT22;15167;1.318;103.762;2023-07-24T02:01:05;29.90;99.90
27781;DHT22;15167;1.318;103.762;2023-07-24T02:03:31;30.00;99.90
27781;DHT22;15167;1.318;103.762;2023-07-24T02:05:58;30.10;99.90
27781;DHT22;15167;1.318;103.762;2023-07-24T02:08:24;30.10;99.90
27781;DHT22;15167;1.318;103.762;2023-07-24T02:10:51;30.20;99.90
27781;DHT22;15167;1.318;103.762;2023-07-24T02:13:17;30.40;99.90
27781;DHT22;15167;1.318;103.762;2023-07-24T02:15:44;30.40;84.60
27781;DHT22;15167;1.318;103.762;2023-07-24T02:18:10;30.40;89.50
27781;DHT22;15167;1.318;103.762;2023-07-24T02:20:37;30.50;75.10
27781;DHT22;15167;1.318;103.762;2023-07-24T02:23:03;30.50;55.60
27781;DHT22;15167;1.318;103.762;2023-07-24T02:25:30;30.50;82.70
27781;DHT22;15167;1.318;103.762;2023-07-24T02:27:56;30.50;61.60
27781;DHT22;15167;1.318;103.762;2023-07-24T02:30:23;30.60;53.40
27781;DHT22;15167;1.318;103.762;2023-07-24T02:32:49;30.60;28.30
27781;DHT22;15167;1.318;103.762;2023-07-24T02:35:16;30.70;25.40
27781;DHT22;15167;1.318;103.762;2023-07-24T02:37:44;30.70;1.00
27781;DHT22;15167;1.318;103.762;2023-07-24T02:40:11;30.90;1.00
27781;DHT22;15167;1.318;103.762;2023-07-24T02:42:37;31.00;1.00
27781;DHT22;15167;1.318;103.762;2023-07-24T02:45:04;31.00;1.00
27781;DHT22;15167;1.318;103.762;2023-07-24T02:47:36;31.00;1.00
27781;DHT22;15167;1.318;103.762;2023-07-24T02:50:04;31.20;1.00
27781;DHT22;15167;1.318;103.762;2023-07-24T02:52:30;31.20;1.00
27781;DHT22;15167;1.318;103.762;2023-07-24T02:54:57;31.20;99.90
27781;DHT22;15167;1.318;103.762;2023-07-24T02:57:23;31.30;99.90
27781;DHT22;15167;1.318;103.762;2023-07-24T02:59:50;31.30;99.90
27781;DHT22;15167;1.318;103.762;2023-07-24T03:02:17;31.30;99.90
27781;DHT22;15167;1.318;103.762;2023-07-24T03:04:43;31.40;99.90
27781;DHT22;15167;1.318;103.762;2023-07-24T03:07:10;31.40;99.90
27781;DHT22;15167;1.318;103.762;2023-07-24T03:09:36;31.40;99.90
27781;DHT22;15167;1.318;103.762;2023-07-24T03:12:03;31.40;99.90
27781;DHT22;15167;1.318;103.762;2023-07-24T03:14:29;31.50;99.90
27781;DHT22;15167;1.318;103.762;2023-07-24T03:16:56;31.40;99.90
27781;DHT22;15167;1.318;103.762;2023-07-24T03:19:22;31.40;99.90
27781;DHT22;15167;1.318;103.762;2023-07-24T03:21:49;31.50;99.90
27781;DHT22;15167;1.318;103.762;2023-07-24T03:24:16;31.60;99.90
27781;DHT22;15167;1.318;103.762;2023-07-24T03:26:42;31.70;99.90
27781;DHT22;15167;1.318;103.762;2023-07-24T03:29:09;31.70;99.90
27781;DHT22;15167;1.318;103.762;2023-07-24T03:31:36;31.80;99.90
27781;DHT22;15167;1.318;103.762;2023-07-24T03:34:02;31.90;99.90
27781;DHT22;15167;1.318;103.762;2023-07-24T03:36:29;32.00;99.90
27781;DHT22;15167;1.318;103.762;2023-07-24T03:38:55;32.00;99.90
27781;DHT22;15167;1.318;103.762;2023-07-24T03:41:22;32.10;99.90
27781;DHT22;15167;1.318;103.762;2023-07-24T03:43:48;32.20;99.90
27781;DHT22;15167;1.318;103.762;2023-07-24T03:46:15;32.30;92.20
27781;DHT22;15167;1.318;103.762;2023-07-24T03:48:41;32.30;90.00
27781;DHT22;15167;1.318;103.762;2023-07-24T03:51:08;32.30;90.10
27781;DHT22;15167;1.318;103.762;2023-07-24T03:53:35;32.30;92.90
27781;DHT22;15167;1.318;103.762;2023-07-24T03:56:01;32.40;88.10
27781;DHT22;15167;1.318;103.762;2023-07-24T03:58:28;32.40;64.20
27781;DHT22;15167;1.318;103.762;2023-07-24T04:00:54;32.30;52.70
27781;DHT22;15167;1.318;103.762;2023-07-24T04:03:21;32.40;56.50
27781;DHT22;15167;1.318;103.762;2023-07-24T04:05:48;32.40;60.70
27781;DHT22;15167;1.318;103.762;2023-07-24T04:08:14;32.50;77.30
27781;DHT22;15167;1.318;103.762;2023-07-24T04:10:41;32.60;83.60
27781;DHT22;15167;1.318;103.762;2023-07-24T04:13:07;32.60;76.50
27781;DHT22;15167;1.318;103.762;2023-07-24T04:15:34;32.70;62.30
27781;DHT22;15167;1.318;103.762;2023-07-24T04:18:00;32.80;66.20
27781;DHT22;15167;1.318;103.762;2023-07-24T04:20:27;32.90;70.80
27781;DHT22;15167;1.318;103.762;2023-07-24T04:22:53;33.10;72.20
27781;DHT22;15167;1.318;103.762;2023-07-24T04:25:20;33.10;78.70
27781;DHT22;15167;1.318;103.762;2023-07-24T04:27:47;33.10;73.80
27781;DHT22;15167;1.318;103.762;2023-07-24T04:30:13;33.20;74.30
27781;DHT22;15167;1.318;103.762;2023-07-24T04:32:40;33.30;50.80
27781;DHT22;15167;1.318;103.762;2023-07-24T04:35:07;33.40;40.80
27781;DHT22;15167;1.318;103.762;2023-07-24T04:37:35;33.50;36.40
27781;DHT22;15167;1.318;103.762;2023-07-24T04:40:01;33.60;32.80
27781;DHT22;15167;1.318;103.762;2023-07-24T04:42:28;33.60;29.50
27781;DHT22;15167;1.318;103.762;2023-07-24T04:44:54;33.40;30.80
27781;DHT22;15167;1.318;103.762;2023-07-24T04:47:21;33.40;28.50
27781;DHT22;15167;1.318;103.762;2023-07-24T04:49:47;33.40;27.60
27781;DHT22;15167;1.318;103.762;2023-07-24T04:52:14;33.30;27.70
27781;DHT22;15167;1.318;103.762;2023-07-24T04:54:40;33.20;28.80
27781;DHT22;15167;1.318;103.762;2023-07-24T04:57:07;33.50;24.20
27781;DHT22;15167;1.318;103.762;2023-07-24T04:59:33;33.70;23.50
27781;DHT22;15167;1.318;103.762;2023-07-24T05:02:00;33.90;22.10
27781;DHT22;15167;1.318;103.762;2023-07-24T05:04:27;34.30;20.20
27781;DHT22;15167;1.318;103.762;2023-07-24T05:06:53;35.00;19.00
27781;DHT22;15167;1.318;103.762;2023-07-24T05:09:20;36.40;16.60
27781;DHT22;15167;1.318;103.762;2023-07-24T05:11:46;37.90;15.50
27781;DHT22;15167;1.318;103.762;2023-07-24T05:14:13;38.90;12.90
27781;DHT22;15167;1.318;103.762;2023-07-24T05:16:39;40.10;12.90
27781;DHT22;15167;1.318;103.762;2023-07-24T05:19:06;40.80;13.60
27781;DHT22;15167;1.318;103.762;2023-07-24T05:21:32;41.50;13.30
27781;DHT22;15167;1.318;103.762;2023-07-24T05:23:59;41.90;12.40
27781;DHT22;15167;1.318;103.762;2023-07-24T05:26:25;42.20;12.80
27781;DHT22;15167;1.318;103.762;2023-07-24T05:28:52;42.40;11.10
27781;DHT22;15167;1.318;103.762;2023-07-24T05:31:19;42.70;9.60
27781;DHT22;15167;1.318;103.762;2023-07-24T05:33:45;43.10;7.70
27781;DHT22;15167;1.318;103.762;2023-07-24T05:36:12;43.20;7.50
27781;DHT22;15167;1.318;103.762;2023-07-24T05:38:38;43.30;8.80
27781;DHT22;15167;1.318;103.762;2023-07-24T05:41:05;43.40;6.90
27781;DHT22;15167;1.318;103.762;2023-07-24T05:43:32;43.40;4.40
27781;DHT22;15167;1.318;103.762;2023-07-24T05:45:58;43.20;4.80
27781;DHT22;15167;1.318;103.762;2023-07-24T05:48:25;43.20;4.70
27781;DHT22;15167;1.318;103.762;2023-07-24T05:50:52;43.40;3.10
27781;DHT22;15167;1.318;103.762;2023-07-24T05:53:18;43.50;1.80
27781;DHT22;15167;1.318;103.762;2023-07-24T05:55:45;43.70;1.00
27781;DHT22;15167;1.318;103.762;2023-07-24T05:58:11;44.00;1.00
27781;DHT22;15167;1.318;103.762;2023-07-24T06:00:38;43.90;1.00
27781;DHT22;15167;1.318;103.762;2023-07-24T06:03:05;43.70;1.00
27781;DHT22;15167;1.318;103.762;2023-07-24T06:05:31;43.40;1.00
27781;DHT22;15167;1.318;103.762;2023-07-24T06:07:58;43.50;1.00
27781;DHT22;15167;1.318;103.762;2023-07-24T06:10:24;43.40;1.00
27781;DHT22;15167;1.318;103.762;2023-07-24T06:12:51;43.30;1.00
27781;DHT22;15167;1.318;103.762;2023-07-24T06:15:17;43.30;1.00
27781;DHT22;15167;1.318;103.762;2023-07-24T06:17:44;43.30;1.00
27781;DHT22;15167;1.318;103.762;2023-07-24T06:20:10;43.10;1.00
27781;DHT22;15167;1.318;103.762;2023-07-24T06:22:37;42.80;1.00
27781;DHT22;15167;1.318;103.762;2023-07-24T06:25:04;42.50;1.00
27781;DHT22;15167;1.318;103.762;2023-07-24T06:27:30;41.90;1.00
27781;DHT22;15167;1.318;103.762;2023-07-24T06:29:57;41.60;1.00
27781;DHT22;15167;1.318;103.762;2023-07-24T06:32:23;41.40;1.00
27781;DHT22;15167;1.318;103.762;2023-07-24T06:34:50;41.20;1.00
27781;DHT22;15167;1.318;103.762;2023-07-24T06:37:17;41.10;1.00
27781;DHT22;15167;1.318;103.762;2023-07-24T06:39:43;41.00;1.00
27781;DHT22;15167;1.318;103.762;2023-07-24T06:42:10;40.60;1.00
27781;DHT22;15167;1.318;103.762;2023-07-24T06:44:36;40.50;1.00
27781;DHT22;15167;1.318;103.762;2023-07-24T06:47:03;40.30;1.00
27781;DHT22;15167;1.318;103.762;2023-07-24T06:49:29;40.00;1.00
27781;DHT22;15167;1.318;103.762;2023-07-24T06:51:56;39.70;1.00
27781;DHT22;15167;1.318;103.762;2023-07-24T06:54:22;39.70;1.00
27781;DHT22;15167;1.318;103.762;2023-07-24T06:56:49;39.60;1.00
27781;DHT22;15167;1.318;103.762;2023-07-24T06:59:15;39.50;1.00
27781;DHT22;15167;1.318;103.762;2023-07-24T07:01:42;39.50;1.00
27781;DHT22;15167;1.318;103.762;2023-07-24T07:04:09;39.50;1.00
27781;DHT22;15167;1.318;103.762;2023-07-24T07:06:35;39.70;1.00
27781;DHT22;15167;1.318;103.762;2023-07-24T07:09:02;39.80;1.00
27781;DHT22;15167;1.318;103.762;2023-07-24T07:11:29;39.90;1.00
27781;DHT22;15167;1.318;103.762;2023-07-24T07:13:55;40.00;1.00
27781;DHT22;15167;1.318;103.762;2023-07-24T07:16:22;40.30;1.00
27781;DHT22;15167;1.318;103.762;2023-07-24T07:18:48;40.30;1.00
27781;DHT22;15167;1.318;103.762;2023-07-24T07:21:15;40.50;1.00
27781;DHT22;15167;1.318;103.762;2023-07-24T07:23:41;40.50;1.00
27781;DHT22;15167;1.318;103.762;2023-07-24T07:26:08;40.30;1.00
27781;DHT22;15167;1.318;103.762;2023-07-24T07:28:34;40.20;1.00
27781;DHT22;15167;1.318;103.762;2023-07-24T07:31:01;40.10;1.00
27781;DHT22;15167;1.318;103.762;2023-07-24T07:33:27;40.20;1.00
27781;DHT22;15167;1.318;103.762;2023-07-24T07:35:55;40.10;1.00
27781;DHT22;15167;1.318;103.762;2023-07-24T07:38:22;40.10;1.00
27781;DHT22;15167;1.318;103.762;2023-07-24T07:40:49;40.20;1.00
27781;DHT22;15167;1.318;103.762;2023-07-24T07:43:15;40.00;1.00
27781;DHT22;15167;1.318;103.762;2023-07-24T07:45:42;39.80;1.00
27781;DHT22;15167;1.318;103.762;2023-07-24T07:48:08;39.50;1.00
27781;DHT22;15167;1.318;103.762;2023-07-24T07:50:35;39.20;1.00
27781;DHT22;15167;1.318;103.762;2023-07-24T07:53:01;39.10;1.00
27781;DHT22;15167;1.318;103.762;2023-07-24T07:55:28;39.10;1.00
27781;DHT22;15167;1.318;103.762;2023-07-24T07:57:54;38.80;1.00
27781;DHT22;15167;1.318;103.762;2023-07-24T08:00:21;38.70;1.00
27781;DHT22;15167;1.318;103.762;2023-07-24T08:02:48;38.50;1.00
27781;DHT22;15167;1.318;103.762;2023-07-24T08:05:15;38.40;1.00
27781;DHT22;15167;1.318;103.762;2023-07-24T08:07:41;38.20;1.00
27781;DHT22;15167;1.318;103.762;2023-07-24T08:10:08;38.00;1.00
27781;DHT22;15167;1.318;103.762;2023-07-24T08:12:35;37.80;1.00
27781;DHT22;15167;1.318;103.762;2023-07-24T08:15:01;37.80;1.00
27781;DHT22;15167;1.318;103.762;2023-07-24T08:17:28;37.80;1.00
27781;DHT22;15167;1.318;103.762;2023-07-24T08:19:55;37.80;1.00
27781;DHT22;15167;1.318;103.762;2023-07-24T08:22:22;37.70;1.00
27781;DHT22;15167;1.318;103.762;2023-07-24T08:24:49;37.60;1.00
27781;DHT22;15167;1.318;103.762;2023-07-24T08:27:17;37.50;1.00
27781;DHT22;15167;1.318;103.762;2023-07-24T08:29:43;37.50;1.00
27781;DHT22;15167;1.318;103.762;2023-07-24T08:32:10;37.40;1.00
27781;DHT22;15167;1.318;103.762;2023-07-24T08:34:37;37.40;1.00
27781;DHT22;15167;1.318;103.762;2023-07-24T08:37:03;37.10;1.00
27781;DHT22;15167;1.318;103.762;2023-07-24T08:39:31;36.90;1.00
27781;DHT22;15167;1.318;103.762;2023-07-24T08:41:58;36.70;1.70
27781;DHT22;15167;1.318;103.762;2023-07-24T08:44:25;36.60;1.90
27781;DHT22;15167;1.318;103.762;2023-07-24T08:46:54;36.50;3.20
27781;DHT22;15167;1.318;103.762;2023-07-24T08:49:21;36.50;6.60
27781;DHT22;15167;1.318;103.762;2023-07-24T08:51:48;36.50;9.70
27781;DHT22;15167;1.318;103.762;2023-07-24T08:54:15;36.60;9.80
27781;DHT22;15167;1.318;103.762;2023-07-24T08:56:43;36.60;10.60
27781;DHT22;15167;1.318;103.762;2023-07-24T08:59:13;36.50;13.40
27781;DHT22;15167;1.318;103.762;2023-07-24T09:01:40;36.50;11.20
27781;DHT22;15167;1.318;103.762;2023-07-24T09:04:07;36.50;10.10
27781;DHT22;15167;1.318;103.762;2023-07-24T09:06:34;36.30;14.20
27781;DHT22;15167;1.318;103.762;2023-07-24T09:09:00;36.20;17.90
27781;DHT22;15167;1.318;103.762;2023-07-24T09:11:27;36.10;19.40
27781;DHT22;15167;1.318;103.762;2023-07-24T09:13:53;36.00;23.60
27781;DHT22;15167;1.318;103.762;2023-07-24T09:16:26;35.90;19.20
27781;DHT22;15167;1.318;103.762;2023-07-24T09:18:53;35.80;23.00
27781;DHT22;15167;1.318;103.762;2023-07-24T09:21:30;35.80;28.10
27781;DHT22;15167;1.318;103.762;2023-07-24T09:23:57;35.80;31.20
27781;DHT22;15167;1.318;103.762;2023-07-24T09:26:24;35.80;32.50
27781;DHT22;15167;1.318;103.762;2023-07-24T09:28:54;35.80;35.90
27781;DHT22;15167;1.318;103.762;2023-07-24T09:31:21;35.90;28.40
27781;DHT22;15167;1.318;103.762;2023-07-24T09:33:48;36.00;25.90
27781;DHT22;15167;1.318;103.762;2023-07-24T09:36:14;36.20;25.80
27781;DHT22;15167;1.318;103.762;2023-07-24T09:38:41;36.40;23.10
27781;DHT22;15167;1.318;103.762;2023-07-24T09:41:08;36.70;23.10
27781;DHT22;15167;1.318;103.762;2023-07-24T09:43:35;37.50;13.80
27781;DHT22;15167;1.318;103.762;2023-07-24T09:46:04;38.00;9.20
27781;DHT22;15167;1.318;103.762;2023-07-24T09:48:32;38.50;5.30
27781;DHT22;15167;1.318;103.762;2023-07-24T09:51:00;38.40;4.90
27781;DHT22;15167;1.318;103.762;2023-07-24T09:56:18;38.50;1.00
27781;DHT22;15167;1.318;103.762;2023-07-24T09:58:46;38.10;1.00
27781;DHT22;15167;1.318;103.762;2023-07-24T10:01:15;37.90;1.20
27781;DHT22;15167;1.318;103.762;2023-07-24T10:03:49;37.70;1.40
27781;DHT22;15167;1.318;103.762;2023-07-24T10:06:17;37.10;4.30
27781;DHT22;15167;1.318;103.762;2023-07-24T10:08:44;36.80;8.10
27781;DHT22;15167;1.318;103.762;2023-07-24T10:11:14;36.50;13.60
27781;DHT22;15167;1.318;103.762;2023-07-24T10:13:42;36.10;16.90
27781;DHT22;15167;1.318;103.762;2023-07-24T10:16:09;35.50;29.90
27781;DHT22;15167;1.318;103.762;2023-07-24T10:18:43;35.20;38.10
27781;DHT22;15167;1.318;103.762;2023-07-24T10:21:10;34.90;49.90
27781;DHT22;15167;1.318;103.762;2023-07-24T10:23:44;34.50;67.10
27781;DHT22;15167;1.318;103.762;2023-07-24T10:26:14;34.20;84.70
27781;DHT22;15167;1.318;103.762;2023-07-24T10:28:47;34.00;96.40
27781;DHT22;15167;1.318;103.762;2023-07-24T10:31:23;33.90;99.90
27781;DHT22;15167;1.318;103.762;2023-07-24T10:33:50;33.70;99.90
27781;DHT22;15167;1.318;103.762;2023-07-24T10:36:19;33.50;99.90
27781;DHT22;15167;1.318;103.762;2023-07-24T10:38:46;33.30;99.90
27781;DHT22;15167;1.318;103.762;2023-07-24T10:41:13;33.20;99.90
27781;DHT22;15167;1.318;103.762;2023-07-24T10:43:48;33.10;99.90
27781;DHT22;15167;1.318;103.762;2023-07-24T10:46:17;33.00;99.90
27781;DHT22;15167;1.318;103.762;2023-07-24T10:48:50;33.00;99.90
27781;DHT22;15167;1.318;103.762;2023-07-24T10:51:17;32.90;99.90
27781;DHT22;15167;1.318;103.762;2023-07-24T10:53:50;32.80;99.90
27781;DHT22;15167;1.318;103.762;2023-07-24T10:56:17;32.70;99.90
27781;DHT22;15167;1.318;103.762;2023-07-24T10:58:43;32.60;99.90
27781;DHT22;15167;1.318;103.762;2023-07-24T11:01:10;32.50;99.90
27781;DHT22;15167;1.318;103.762;2023-07-24T11:03:39;32.40;99.90
27781;DHT22;15167;1.318;103.762;2023-07-24T11:06:13;32.40;99.90
27781;DHT22;15167;1.318;103.762;2023-07-24T11:08:40;32.20;99.90
27781;DHT22;15167;1.318;103.762;2023-07-24T11:11:09;32.20;99.90
27781;DHT22;15167;1.318;103.762;2023-07-24T11:13:38;32.10;99.90
27781;DHT22;15167;1.318;103.762;2023-07-24T11:16:06;32.00;99.90
27781;DHT22;15167;1.318;103.762;2023-07-24T11:18:43;31.90;1.00
27781;DHT22;15167;1.318;103.762;2023-07-24T11:21:12;31.80;1.00
27781;DHT22;15167;1.318;103.762;2023-07-24T11:23:54;31.80;1.00
27781;DHT22;15167;1.318;103.762;2023-07-24T11:26:21;31.60;3.60
27781;DHT22;15167;1.318;103.762;2023-07-24T11:28:52;31.70;21.50
27781;DHT22;15167;1.318;103.762;2023-07-24T11:31:19;31.60;50.00
27781;DHT22;15167;1.318;103.762;2023-07-24T11:33:47;31.50;96.60
27781;DHT22;15167;1.318;103.762;2023-07-24T11:36:15;31.50;99.90
27781;DHT22;15167;1.318;103.762;2023-07-24T11:38:44;31.40;99.90
27781;DHT22;15167;1.318;103.762;2023-07-24T11:41:10;31.20;99.90
27781;DHT22;15167;1.318;103.762;2023-07-24T11:43:48;31.20;99.90
27781;DHT22;15167;1.318;103.762;2023-07-24T11:46:27;31.10;99.90
27781;DHT22;15167;1.318;103.762;2023-07-24T11:48:54;31.00;99.90
27781;DHT22;15167;1.318;103.762;2023-07-24T11:51:24;30.90;99.90
27781;DHT22;15167;1.318;103.762;2023-07-24T11:53:52;31.00;99.90
27781;DHT22;15167;1.318;103.762;2023-07-24T11:56:20;30.90;99.90
27781;DHT22;15167;1.318;103.762;2023-07-24T11:58:48;30.80;99.90
27781;DHT22;15167;1.318;103.762;2023-07-24T12:01:15;30.80;99.90
27781;DHT22;15167;1.318;103.762;2023-07-24T12:03:42;30.80;99.90
27781;DHT22;15167;1.318;103.762;2023-07-24T12:06:16;30.80;99.90
27781;DHT22;15167;1.318;103.762;2023-07-24T12:08:46;30.70;1.00
27781;DHT22;15167;1.318;103.762;2023-07-24T12:11:17;30.70;1.00
27781;DHT22;15167;1.318;103.762;2023-07-24T12:13:47;30.60;1.00
27781;DHT22;15167;1.318;103.762;2023-07-24T12:16:13;30.60;1.00
27781;DHT22;15167;1.318;103.762;2023-07-24T12:18:40;30.60;1.00
27781;DHT22;15167;1.318;103.762;2023-07-24T12:21:06;30.60;1.00
27781;DHT22;15167;1.318;103.762;2023-07-24T12:23:33;30.60;1.00
27781;DHT22;15167;1.318;103.762;2023-07-24T12:26:00;30.50;1.00
27781;DHT22;15167;1.318;103.762;2023-07-24T12:28:26;30.40;1.00
27781;DHT22;15167;1.318;103.762;2023-07-24T12:30:53;30.30;1.00
27781;DHT22;15167;1.318;103.762;2023-07-24T12:33:19;30.30;1.00
27781;DHT22;15167;1.318;103.762;2023-07-24T12:35:50;30.30;1.00
27781;DHT22;15167;1.318;103.762;2023-07-24T12:38:17;30.20;1.00
27781;DHT22;15167;1.318;103.762;2023-07-24T12:40:43;30.20;1.00
27781;DHT22;15167;1.318;103.762;2023-07-24T12:43:10;30.30;1.00
27781;DHT22;15167;1.318;103.762;2023-07-24T12:45:36;30.30;1.00
27781;DHT22;15167;1.318;103.762;2023-07-24T12:48:03;30.20;1.00
27781;DHT22;15167;1.318;103.762;2023-07-24T12:50:30;30.20;1.00
27781;DHT22;15167;1.318;103.762;2023-07-24T12:52:56;30.20;1.00
27781;DHT22;15167;1.318;103.762;2023-07-24T12:55:23;30.20;1.00
27781;DHT22;15167;1.318;103.762;2023-07-24T12:57:50;30.10;1.00
27781;DHT22;15167;1.318;103.762;2023-07-24T13:00:16;30.10;1.00
27781;DHT22;15167;1.318;103.762;2023-07-24T13:02:43;30.10;1.00
27781;DHT22;15167;1.318;103.762;2023-07-24T13:05:09;30.10;1.00
27781;DHT22;15167;1.318;103.762;2023-07-24T13:07:36;30.10;1.00
27781;DHT22;15167;1.318;103.762;2023-07-24T13:10:03;30.10;1.00
27781;DHT22;15167;1.318;103.762;2023-07-24T13:12:29;30.00;1.00
27781;DHT22;15167;1.318;103.762;2023-07-24T13:14:56;30.00;1.00
27781;DHT22;15167;1.318;103.762;2023-07-24T13:17:22;30.00;1.00
27781;DHT22;15167;1.318;103.762;2023-07-24T13:19:49;30.00;1.00
27781;DHT22;15167;1.318;103.762;2023-07-24T13:22:15;30.00;1.00
27781;DHT22;15167;1.318;103.762;2023-07-24T13:24:42;30.00;1.00
27781;DHT22;15167;1.318;103.762;2023-07-24T13:27:09;29.90;1.00
27781;DHT22;15167;1.318;103.762;2023-07-24T13:29:35;29.90;1.00
27781;DHT22;15167;1.318;103.762;2023-07-24T13:32:02;29.80;1.00
27781;DHT22;15167;1.318;103.762;2023-07-24T13:34:28;29.80;1.00
27781;DHT22;15167;1.318;103.762;2023-07-24T13:36:55;29.80;1.00
27781;DHT22;15167;1.318;103.762;2023-07-24T13:39:21;29.80;1.00
27781;DHT22;15167;1.318;103.762;2023-07-24T13:41:48;29.80;1.00
27781;DHT22;15167;1.318;103.762;2023-07-24T13:44:15;29.90;1.00
27781;DHT22;15167;1.318;103.762;2023-07-24T13:46:41;29.90;1.00
27781;DHT22;15167;1.318;103.762;2023-07-24T13:49:08;29.80;1.00
27781;DHT22;15167;1.318;103.762;2023-07-24T13:51:34;29.80;1.00
27781;DHT22;15167;1.318;103.762;2023-07-24T13:54:01;29.80;1.00
27781;DHT22;15167;1.318;103.762;2023-07-24T13:56:27;29.80;1.00
27781;DHT22;15167;1.318;103.762;2023-07-24T13:58:55;29.80;1.00
27781;DHT22;15167;1.318;103.762;2023-07-24T14:01:22;29.80;1.00
27781;DHT22;15167;1.318;103.762;2023-07-24T14:03:48;29.80;1.00
27781;DHT22;15167;1.318;103.762;2023-07-24T14:06:15;29.80;1.00
27781;DHT22;15167;1.318;103.762;2023-07-24T14:08:41;29.70;1.00
27781;DHT22;15167;1.318;103.762;2023-07-24T14:11:08;29.70;1.00
27781;DHT22;15167;1.318;103.762;2023-07-24T14:13:35;29.70;1.00
27781;DHT22;15167;1.318;103.762;2023-07-24T14:16:01;29.70;1.00
27781;DHT22;15167;1.318;103.762;2023-07-24T14:18:28;29.70;1.00
27781;DHT22;15167;1.318;103.762;2023-07-24T14:20:54;29.60;1.00
27781;DHT22;15167;1.318;103.762;2023-07-24T14:23:22;29.70;1.00
27781;DHT22;15167;1.318;103.762;2023-07-24T14:25:49;29.70;1.00
27781;DHT22;15167;1.318;103.762;2023-07-24T14:28:15;29.70;1.00
27781;DHT22;15167;1.318;103.762;2023-07-24T14:30:42;29.60;1.00
27781;DHT22;15167;1.318;103.762;2023-07-24T14:33:08;29.60;1.00
27781;DHT22;15167;1.318;103.762;2023-07-24T14:35:35;29.60;1.00
27781;DHT22;15167;1.318;103.762;2023-07-24T14:38:02;29.70;1.00
27781;DHT22;15167;1.318;103.762;2023-07-24T14:40:28;29.60;1.00
27781;DHT22;15167;1.318;103.762;2023-07-24T14:42:55;29.70;1.00
27781;DHT22;15167;1.318;103.762;2023-07-24T14:45:22;29.60;1.00
27781;DHT22;15167;1.318;103.762;2023-07-24T14:47:48;29.60;8.60
27781;DHT22;15167;1.318;103.762;2023-07-24T14:50:15;29.60;3.60
27781;DHT22;15167;1.318;103.762;2023-07-24T14:52:42;29.60;1.00
27781;DHT22;15167;1.318;103.762;2023-07-24T14:55:09;29.60;8.80
27781;DHT22;15167;1.318;103.762;2023-07-24T14:57:36;29.60;1.00
27781;DHT22;15167;1.318;103.762;2023-07-24T15:00:02;29.60;1.00
27781;DHT22;15167;1.318;103.762;2023-07-24T15:02:29;29.60;3.90
27781;DHT22;15167;1.318;103.762;2023-07-24T15:04:58;29.50;1.00
27781;DHT22;15167;1.318;103.762;2023-07-24T15:07:25;29.60;1.00
27781;DHT22;15167;1.318;103.762;2023-07-24T15:09:51;29.60;1.00
27781;DHT22;15167;1.318;103.762;2023-07-24T15:12:18;29.60;1.00
27781;DHT22;15167;1.318;103.762;2023-07-24T15:14:45;29.60;1.00
27781;DHT22;15167;1.318;103.762;2023-07-24T15:17:11;29.50;1.00
27781;DHT22;15167;1.318;103.762;2023-07-24T15:19:40;29.50;1.00
27781;DHT22;15167;1.318;103.762;2023-07-24T15:22:07;29.40;1.00
27781;DHT22;15167;1.318;103.762;2023-07-24T15:24:33;29.40;1.00
27781;DHT22;15167;1.318;103.762;2023-07-24T15:27:00;29.40;1.00
27781;DHT22;15167;1.318;103.762;2023-07-24T15:29:37;29.50;1.00